Time;durP1;ratioP1;P1;durP2;ratioP2;P2;SDS_P1;SDS_P2;PMS_P1;PMS_P2;Temp;Humidity;BMP_temperature;BMP_pressure;BME280_temperature;BME280_humidity;BME280_pressure;Samples;Min_cycle;Max_cycle;Signal;HPM_P1;HPM_P2
2023/12/03 00:02:10;;;;;;;4.40;3.40;;;;;;;;;;10442486;28;20440;-90
2023/12/03 00:07:14;;;;;;;5.32;3.33;;;;;;;;;;10439412;28;20518;-89
2023/12/03 00:12:16;;;;;;;4.82;3.40;;;;;;;;;;10431345;28;20820;-90
2023/12/03 00:17:18;;;;;;;5.32;4.03;;;;;;;;;;10425515;28;20401;-90
2023/12/03 00:22:22;;;;;;;4.90;3.63;;;;;;;;;;10435989;28;20400;-89
2023/12/03 00:27:25;;;;;;;4.25;3.38;;;;;;;;;;10431516;28;20454;-90
2023/12/03 00:32:27;;;;;;;4.90;3.17;;;;;;;;;;10433472;28;20826;-90
2023/12/03 00:37:31;;;;;;;4.03;3.33;;;;;;;;;;10425247;28;20403;-90
2023/12/03 00:42:33;;;;;;;3.50;2.88;;;;;;;;;;10424684;28;20451;-90
2023/12/03 00:47:36;;;;;;;4.37;2.97;;;;;;;;;;10435082;28;20469;-90
2023/12/03 00:52:39;;;;;;;4.47;3.10;;;;;;;;;;10426526;28;20954;-90
2023/12/03 00:57:42;;;;;;;3.83;2.80;;;;;;;;;;10422567;28;20943;-90
2023/12/03 01:02:44;;;;;;;4.40;2.73;;;;;;;;;;10440554;28;20465;-89
2023/12/03 01:07:48;;;;;;;4.55;3.15;;;;;;;;;;10447963;28;20475;-90
2023/12/03 01:12:51;;;;;;;4.40;2.97;;;;;;;;;;10435262;28;20413;-89
2023/12/03 01:17:54;;;;;;;5.05;3.28;;;;;;;;;;10430954;28;20404;-90
2023/12/03 01:22:57;;;;;;;5.68;3.50;;;;;;;;;;10423934;28;20436;-90
2023/12/03 01:28:00;;;;;;;3.90;2.90;;;;;;;;;;10432617;28;20483;-90
2023/12/03 01:33:02;;;;;;;4.55;2.78;;;;;;;;;;10434159;28;20417;-90
2023/12/03 01:38:06;;;;;;;4.13;3.30;;;;;;;;;;10439392;28;20534;-90
2023/12/03 01:43:08;;;;;;;5.20;2.92;;;;;;;;;;10433746;28;20448;-90
2023/12/03 01:48:11;;;;;;;3.47;1.90;;;;;;;;;;10436251;28;20489;-90
2023/12/03 01:53:17;;;;;;;2.50;1.70;;;;;;;;;;10465500;28;20440;-90
2023/12/03 01:58:20;;;;;;;1.77;1.40;;;;;;;;;;10448273;28;20770;-90
2023/12/03 02:03:22;;;;;;;2.22;1.45;;;;;;;;;;10469462;28;20842;-89
2023/12/03 02:08:26;;;;;;;2.17;1.30;;;;;;;;;;10431824;28;20483;-90
2023/12/03 02:13:30;;;;;;;2.33;1.40;;;;;;;;;;10438080;28;20510;-89
2023/12/03 02:18:33;;;;;;;2.05;1.20;;;;;;;;;;10428378;28;20398;-90
2023/12/03 02:23:37;;;;;;;2.13;1.45;;;;;;;;;;10433027;28;20406;-90
2023/12/03 02:28:40;;;;;;;1.92;1.48;;;;;;;;;;10431641;28;20517;-89
2023/12/03 02:33:43;;;;;;;2.05;1.58;;;;;;;;;;10421931;28;20410;-89
2023/12/03 02:38:47;;;;;;;1.85;1.63;;;;;;;;;;10437386;28;20411;-90
2023/12/03 02:43:49;;;;;;;2.57;1.70;;;;;;;;;;10440110;28;20457;-90
2023/12/03 02:48:52;;;;;;;2.13;1.50;;;;;;;;;;10429147;28;20485;-90
2023/12/03 02:53:55;;;;;;;1.50;1.40;;;;;;;;;;10433025;28;20433;-89
2023/12/03 02:58:58;;;;;;;2.17;1.60;;;;;;;;;;10461303;28;20434;-90
2023/12/03 03:04:00;;;;;;;2.35;1.63;;;;;;;;;;10423738;28;20830;-89
2023/12/03 03:09:04;;;;;;;2.47;1.60;;;;;;;;;;10435297;28;20427;-91
2023/12/03 03:14:06;;;;;;;1.63;1.48;;;;;;;;;;10432874;28;20840;-90
2023/12/03 03:19:09;;;;;;;2.13;1.58;;;;;;;;;;10431383;28;20403;-90
2023/12/03 03:24:12;;;;;;;2.20;1.50;;;;;;;;;;10424423;28;20460;-90
2023/12/03 03:29:15;;;;;;;2.25;1.50;;;;;;;;;;10428095;28;20421;-90
2023/12/03 03:34:17;;;;;;;3.10;2.00;;;;;;;;;;10427798;28;20716;-90
2023/12/03 03:39:21;;;;;;;2.07;1.70;;;;;;;;;;10422609;28;20421;-90
2023/12/03 03:44:23;;;;;;;2.23;1.70;;;;;;;;;;10429635;28;20406;-89
2023/12/03 03:49:26;;;;;;;2.43;1.80;;;;;;;;;;10425969;28;20433;-89
2023/12/03 03:54:30;;;;;;;2.45;1.88;;;;;;;;;;10440786;28;20436;-90
2023/12/03 03:59:32;;;;;;;1.87;1.67;;;;;;;;;;10439816;28;20479;-90
2023/12/03 04:04:34;;;;;;;2.63;1.65;;;;;;;;;;10427540;28;20483;-89
2023/12/03 04:09:38;;;;;;;3.00;1.58;;;;;;;;;;10424920;28;20423;-90
2023/12/03 04:14:41;;;;;;;2.22;1.70;;;;;;;;;;10433377;28;20877;-90
2023/12/03 04:19:44;;;;;;;3.10;2.20;;;;;;;;;;10423177;28;20493;-90
2023/12/03 04:24:47;;;;;;;3.15;1.70;;;;;;;;;;10421964;28;20480;-90
2023/12/03 04:29:50;;;;;;;3.13;1.77;;;;;;;;;;10430987;28;20501;-90
2023/12/03 04:34:52;;;;;;;7.60;2.17;;;;;;;;;;10423745;28;20409;-91
2023/12/03 04:39:56;;;;;;;3.53;2.60;;;;;;;;;;10426247;28;20487;-90
2023/12/03 04:44:58;;;;;;;3.10;1.90;;;;;;;;;;10417320;28;20508;-91
2023/12/03 04:50:01;;;;;;;3.85;2.25;;;;;;;;;;10430572;28;20429;-90
2023/12/03 04:55:05;;;;;;;3.43;2.30;;;;;;;;;;10452572;28;20458;-91
2023/12/03 05:00:09;;;;;;;2.53;1.90;;;;;;;;;;10425092;28;20519;-90
2023/12/03 05:05:12;;;;;;;3.03;2.00;;;;;;;;;;10426870;28;21010;-90
2023/12/03 05:10:16;;;;;;;2.67;2.00;;;;;;;;;;10431007;28;20462;-90
2023/12/03 05:15:19;;;;;;;3.35;2.10;;;;;;;;;;10438015;28;20507;-90
2023/12/03 05:20:21;;;;;;;3.10;2.20;;;;;;;;;;10433758;28;20471;-90
2023/12/03 05:25:25;;;;;;;3.03;2.15;;;;;;;;;;10432452;28;20528;-90
2023/12/03 05:30:27;;;;;;;3.50;2.17;;;;;;;;;;10440554;28;20472;-90
2023/12/03 05:35:30;;;;;;;4.32;2.20;;;;;;;;;;10431392;28;20445;-91
2023/12/03 05:40:33;;;;;;;3.55;2.08;;;;;;;;;;10427928;28;20412;-90
2023/12/03 05:45:36;;;;;;;3.80;2.33;;;;;;;;;;10441636;28;20439;-91
2023/12/03 05:50:38;;;;;;;5.25;4.15;;;;;;;;;;10459974;28;20496;-90
2023/12/03 05:55:42;;;;;;;3.57;2.50;;;;;;;;;;10434701;28;20915;-89
2023/12/03 06:00:44;;;;;;;3.42;2.35;;;;;;;;;;10439218;28;20473;-90
2023/12/03 06:05:47;;;;;;;3.33;2.33;;;;;;;;;;10423598;28;20442;-90
2023/12/03 06:10:50;;;;;;;2.97;2.50;;;;;;;;;;10418244;28;20845;-90
2023/12/03 06:15:53;;;;;;;3.60;2.58;;;;;;;;;;10404108;28;20450;-90
2023/12/03 06:20:55;;;;;;;3.33;2.53;;;;;;;;;;10402653;28;20475;-90
2023/12/03 06:25:59;;;;;;;4.30;2.55;;;;;;;;;;10387190;28;20511;-90
2023/12/03 06:31:01;;;;;;;3.30;2.50;;;;;;;;;;10390988;28;20470;-90
2023/12/03 06:36:04;;;;;;;4.45;2.53;;;;;;;;;;10395079;28;20413;-90
2023/12/03 06:41:09;;;;;;;3.90;2.67;;;;;;;;;;10390370;28;20482;-90
2023/12/03 06:46:11;;;;;;;4.15;2.88;;;;;;;;;;10420374;28;20410;-89
2023/12/03 06:51:13;;;;;;;3.30;2.50;;;;;;;;;;10391760;28;20474;-90
2023/12/03 06:56:17;;;;;;;3.85;3.00;;;;;;;;;;10400263;28;20417;-90
2023/12/03 07:01:20;;;;;;;4.85;2.90;;;;;;;;;;10393456;28;20544;-90
2023/12/03 07:06:22;;;;;;;5.13;3.13;;;;;;;;;;10400434;28;20960;-90
2023/12/03 07:11:28;;;;;;;5.27;3.20;;;;;;;;;;10402100;28;20431;-90
2023/12/03 07:16:30;;;;;;;4.18;3.25;;;;;;;;;;10390293;28;20428;-93
2023/12/03 07:21:32;;;;;;;4.20;3.07;;;;;;;;;;10388134;28;20467;-92
2023/12/03 07:26:36;;;;;;;4.85;3.78;;;;;;;;;;10393045;28;20827;-92
2023/12/03 07:31:39;;;;;;;6.93;4.27;;;;;;;;;;10387962;28;20461;-93
2023/12/03 07:36:41;;;;;;;6.70;4.47;;;;;;;;;;10392687;28;20486;-93
2023/12/03 07:41:51;;;;;;;6.60;4.88;;;;;;;;;;10413756;28;20380;-93
2023/12/03 07:46:53;;;;;;;10.07;5.90;;;;;;;;;;10395278;28;20895;-93
2023/12/03 07:51:56;;;;;;;8.00;5.70;;;;;;;;;;10386673;28;20425;-93
2023/12/03 07:57:00;;;;;;;9.77;5.60;;;;;;;;;;10393754;28;20416;-92
2023/12/03 08:02:03;;;;;;;6.37;4.87;;;;;;;;;;10381168;28;20438;-92
2023/12/03 08:07:05;;;;;;;6.78;4.75;;;;;;;;;;10447906;23;20954;-92
2023/12/03 08:12:09;;;;;;;7.83;4.90;;;;;;;;;;10462097;28;20468;-93
2023/12/03 08:17:12;;;;;;;7.90;5.07;;;;;;;;;;10471556;28;20412;-94
2023/12/03 08:22:15;;;;;;;8.00;4.73;;;;;;;;;;10468635;28;20436;-90
2023/12/03 08:27:21;;;;;;;6.90;4.40;;;;;;;;;;10459476;28;20391;-92
2023/12/03 08:32:23;;;;;;;8.00;4.90;;;;;;;;;;10455246;28;20423;-91
2023/12/03 08:37:26;;;;;;;6.57;4.17;;;;;;;;;;10461640;28;20415;-90
2023/12/03 08:42:29;;;;;;;6.60;4.40;;;;;;;;;;10461431;28;20436;-90
2023/12/03 08:47:32;;;;;;;7.00;4.23;;;;;;;;;;10459841;28;20430;-94
2023/12/03 08:52:34;;;;;;;7.60;4.65;;;;;;;;;;10493996;28;20470;-93
2023/12/03 08:57:39;;;;;;;6.25;3.72;;;;;;;;;;10461915;28;20445;-93
2023/12/03 09:02:41;;;;;;;4.20;3.25;;;;;;;;;;10469844;28;20459;-93
2023/12/03 09:07:44;;;;;;;4.60;3.33;;;;;;;;;;10470282;28;20407;-92
2023/12/03 09:12:48;;;;;;;3.23;2.30;;;;;;;;;;10482053;28;20466;-92
2023/12/03 09:17:50;;;;;;;3.00;2.50;;;;;;;;;;10463241;28;20509;-92
2023/12/03 09:22:54;;;;;;;4.05;2.92;;;;;;;;;;10458981;28;20956;-93
2023/12/03 09:27:58;;;;;;;2.40;1.90;;;;;;;;;;10461780;28;20426;-93
2023/12/03 09:33:00;;;;;;;2.15;1.52;;;;;;;;;;10469240;28;20438;-93
2023/12/03 09:38:03;;;;;;;1.77;1.42;;;;;;;;;;10480408;28;20412;-92
2023/12/03 09:43:07;;;;;;;1.53;1.17;;;;;;;;;;10473986;28;20554;-92
2023/12/03 09:48:11;;;;;;;2.30;1.70;;;;;;;;;;10481671;28;20405;-92
2023/12/03 09:53:16;;;;;;;2.30;1.80;;;;;;;;;;10493906;28;20524;-92
2023/12/03 09:58:19;;;;;;;3.42;2.35;;;;;;;;;;10479751;28;20407;-94
2023/12/03 10:03:22;;;;;;;3.30;2.30;;;;;;;;;;10471689;28;20395;-93
2023/12/03 10:08:24;;;;;;;2.10;1.88;;;;;;;;;;10463948;28;20417;-93
2023/12/03 10:13:29;;;;;;;2.88;1.90;;;;;;;;;;10473332;28;20640;-93
2023/12/03 10:18:31;;;;;;;4.20;2.40;;;;;;;;;;10473204;28;20469;-93
2023/12/03 10:23:35;;;;;;;2.47;2.07;;;;;;;;;;10477091;28;20901;-93
2023/12/03 10:28:39;;;;;;;3.08;2.03;;;;;;;;;;10476959;28;20412;-93
2023/12/03 10:33:44;;;;;;;4.50;2.70;;;;;;;;;;10464992;28;20428;-91
2023/12/03 10:38:50;;;;;;;3.45;2.40;;;;;;;;;;10462994;28;20411;-91
2023/12/03 10:43:55;;;;;;;2.60;2.10;;;;;;;;;;10464456;28;20472;-90
2023/12/03 10:49:01;;;;;;;2.40;2.00;;;;;;;;;;10474754;28;20406;-89
2023/12/03 10:54:03;;;;;;;3.28;2.60;;;;;;;;;;10466110;28;20404;-89
2023/12/03 10:59:10;;;;;;;2.35;2.05;;;;;;;;;;10493314;28;20416;-91
2023/12/03 11:04:24;;;;;;;2.42;1.80;;;;;;;;;;10498768;28;20410;-92
2023/12/03 11:09:27;;;;;;;3.70;2.13;;;;;;;;;;10464514;28;20431;-88
2023/12/03 11:14:32;;;;;;;3.05;2.30;;;;;;;;;;10469758;28;20456;-88
2023/12/03 11:19:36;;;;;;;2.47;1.63;;;;;;;;;;10470251;28;20855;-88
2023/12/03 11:25:00;;;;;;;4.83;2.50;;;;;;;;;;10471193;28;20900;-88
2023/12/03 11:30:06;;;;;;;2.15;1.80;;;;;;;;;;10477258;28;20782;-88
2023/12/03 11:35:18;;;;;;;2.30;1.70;;;;;;;;;;10468522;28;20882;-89
2023/12/03 11:40:37;;;;;;;5.30;3.30;;;;;;;;;;10469995;28;20816;-89
2023/12/03 11:45:51;;;;;;;3.15;2.35;;;;;;;;;;10479299;28;20953;-88
2023/12/03 11:50:57;;;;;;;5.80;2.95;;;;;;;;;;10493059;28;20416;-89
2023/12/03 11:56:02;;;;;;;2.72;2.38;;;;;;;;;;10475107;28;20416;-89
2023/12/03 12:01:11;;;;;;;2.78;2.15;;;;;;;;;;10465579;28;20446;-89
2023/12/03 12:06:25;;;;;;;4.13;2.90;;;;;;;;;;10471392;28;20467;-89
2023/12/03 12:11:30;;;;;;;3.55;3.10;;;;;;;;;;10463353;28;20962;-88
2023/12/03 12:16:38;;;;;;;3.83;2.60;;;;;;;;;;10470568;28;20826;-88
2023/12/03 12:21:57;;;;;;;3.90;2.50;;;;;;;;;;10468091;28;20412;-89
2023/12/03 12:27:03;;;;;;;3.72;2.58;;;;;;;;;;10469858;28;20425;-88
2023/12/03 12:32:07;;;;;;;3.10;2.53;;;;;;;;;;10473695;28;20502;-89
2023/12/03 12:37:10;;;;;;;3.80;2.60;;;;;;;;;;10472482;28;20416;-89
2023/12/03 12:42:24;;;;;;;3.22;2.38;;;;;;;;;;10473342;28;20406;-88
2023/12/03 12:47:37;;;;;;;2.70;2.10;;;;;;;;;;10470270;28;20402;-89
2023/12/03 12:52:45;;;;;;;2.83;2.30;;;;;;;;;;10492590;28;20469;-89
2023/12/03 12:57:48;;;;;;;3.83;2.77;;;;;;;;;;10470054;28;20978;-89
2023/12/03 13:02:59;;;;;;;2.47;2.00;;;;;;;;;;10464627;28;20412;-87
2023/12/03 13:08:06;;;;;;;3.50;2.40;;;;;;;;;;10463517;28;20767;-89
2023/12/03 13:13:15;;;;;;;2.78;2.17;;;;;;;;;;10467888;28;20423;-89
2023/12/03 13:18:19;;;;;;;3.55;2.17;;;;;;;;;;10467684;28;20408;-89
2023/12/03 13:23:29;;;;;;;3.40;2.35;;;;;;;;;;10468286;28;20877;-88
2023/12/03 13:28:33;;;;;;;3.30;2.33;;;;;;;;;;10474926;28;20463;-89
2023/12/03 13:33:41;;;;;;;4.43;2.83;;;;;;;;;;10481554;28;20787;-89
2023/12/03 13:38:47;;;;;;;5.13;4.60;;;;;;;;;;10475975;28;21042;-89
2023/12/03 13:43:55;;;;;;;2.53;2.20;;;;;;;;;;10479259;28;20943;-89
2023/12/03 13:48:59;;;;;;;3.55;2.67;;;;;;;;;;10469724;28;20400;-89
2023/12/03 13:54:03;;;;;;;3.40;2.60;;;;;;;;;;10485092;28;20420;-88
2023/12/03 13:59:06;;;;;;;8.10;7.25;;;;;;;;;;10497757;28;20408;-89
2023/12/03 14:04:12;;;;;;;4.97;3.85;;;;;;;;;;10480621;28;20444;-90
2023/12/03 14:09:21;;;;;;;3.60;2.80;;;;;;;;;;10481371;28;20865;-90
2023/12/03 14:14:26;;;;;;;2.38;2.10;;;;;;;;;;10474287;28;20398;-89
2023/12/03 14:19:35;;;;;;;3.00;2.70;;;;;;;;;;10475795;28;20402;-90
2023/12/03 14:24:37;;;;;;;2.60;2.30;;;;;;;;;;10476226;28;20402;-89
2023/12/03 14:29:40;;;;;;;3.33;2.92;;;;;;;;;;10475348;28;20421;-89
2023/12/03 14:34:44;;;;;;;3.47;2.67;;;;;;;;;;10449817;28;20470;-88
2023/12/03 14:39:48;;;;;;;3.30;2.40;;;;;;;;;;10472558;28;20430;-90
2023/12/03 14:44:53;;;;;;;5.45;4.70;;;;;;;;;;10458554;28;20437;-90
2023/12/03 14:49:59;;;;;;;4.82;4.05;;;;;;;;;;10478748;28;20440;-88
2023/12/03 14:55:06;;;;;;;5.03;3.77;;;;;;;;;;10467281;28;20399;-87
2023/12/03 15:00:14;;;;;;;5.22;3.75;;;;;;;;;;10465373;28;20502;-88
2023/12/03 15:05:21;;;;;;;3.73;2.80;;;;;;;;;;10464000;28;20477;-89
2023/12/03 15:10:30;;;;;;;5.20;3.13;;;;;;;;;;10464099;28;21112;-86
2023/12/03 15:15:40;;;;;;;5.57;3.50;;;;;;;;;;10459884;28;20446;-88
2023/12/03 15:20:48;;;;;;;6.57;3.70;;;;;;;;;;10455020;28;20476;-89
2023/12/03 15:25:52;;;;;;;5.30;3.55;;;;;;;;;;10453975;28;20436;-89
2023/12/03 15:31:00;;;;;;;7.67;3.60;;;;;;;;;;10444626;28;20481;-88
2023/12/03 15:36:08;;;;;;;5.05;3.30;;;;;;;;;;10449337;28;20530;-88
2023/12/03 15:41:12;;;;;;;6.82;4.53;;;;;;;;;;10455953;28;20408;-86
2023/12/03 15:46:19;;;;;;;9.10;5.30;;;;;;;;;;10455223;28;20438;-87
2023/12/03 15:51:28;;;;;;;9.45;5.63;;;;;;;;;;10449829;28;20950;-87
2023/12/03 15:56:32;;;;;;;10.13;5.60;;;;;;;;;;10475048;28;20414;-88
2023/12/03 16:01:37;;;;;;;9.00;5.60;;;;;;;;;;10431897;28;20533;-87
2023/12/03 16:06:42;;;;;;;9.37;5.77;;;;;;;;;;10448554;28;20507;-86
2023/12/03 16:11:46;;;;;;;8.50;5.40;;;;;;;;;;10449474;28;22253;-88
2023/12/03 16:16:56;;;;;;;11.13;6.00;;;;;;;;;;10450114;28;20437;-86
2023/12/03 16:22:03;;;;;;;10.73;6.82;;;;;;;;;;10453590;28;20451;-87
2023/12/03 16:27:09;;;;;;;12.07;6.97;;;;;;;;;;10448294;28;20447;-87
2023/12/03 16:32:26;;;;;;;13.23;7.60;;;;;;;;;;10456381;28;20553;-87
2023/12/03 16:37:30;;;;;;;13.88;8.05;;;;;;;;;;10450178;28;20451;-87
2023/12/03 16:42:32;;;;;;;13.63;7.63;;;;;;;;;;10459402;28;20556;-89
2023/12/03 16:47:37;;;;;;;13.50;8.67;;;;;;;;;;10465205;28;20415;-91
2023/12/03 16:52:46;;;;;;;15.30;8.87;;;;;;;;;;10498435;28;20444;-91
2023/12/03 16:57:52;;;;;;;17.07;9.53;;;;;;;;;;10465108;28;20554;-91
2023/12/03 17:02:59;;;;;;;16.07;9.43;;;;;;;;;;10456449;28;20472;-91
2023/12/03 17:08:09;;;;;;;18.15;10.68;;;;;;;;;;10463729;28;20484;-90
2023/12/03 17:13:17;;;;;;;19.27;10.97;;;;;;;;;;10463241;28;20457;-91
2023/12/03 17:18:25;;;;;;;19.97;11.20;;;;;;;;;;10438798;28;20633;-90
2023/12/03 17:23:30;;;;;;;18.60;11.23;;;;;;;;;;10441588;28;20431;-90
2023/12/03 17:28:33;;;;;;;20.50;12.17;;;;;;;;;;10462873;28;20418;-91
2023/12/03 17:33:37;;;;;;;19.25;11.82;;;;;;;;;;10455382;28;20515;-89
2023/12/03 17:38:44;;;;;;;21.25;12.70;;;;;;;;;;10452966;28;20457;-91
2023/12/03 17:43:51;;;;;;;15.88;9.23;;;;;;;;;;10464480;28;20576;-90
2023/12/03 17:48:59;;;;;;;16.42;9.90;;;;;;;;;;10471208;28;20446;-90
2023/12/03 17:54:06;;;;;;;18.60;11.60;;;;;;;;;;10490042;28;20492;-90
2023/12/03 17:59:10;;;;;;;20.30;11.85;;;;;;;;;;10464040;28;20468;-88
2023/12/03 18:04:15;;;;;;;22.90;13.88;;;;;;;;;;10461708;28;20507;-91
2023/12/03 18:09:19;;;;;;;22.07;14.03;;;;;;;;;;10458493;28;20455;-91
2023/12/03 18:14:23;;;;;;;22.20;14.63;;;;;;;;;;10457053;28;20480;-90
2023/12/03 18:19:29;;;;;;;21.70;14.10;;;;;;;;;;10469844;28;20427;-90
2023/12/03 18:24:34;;;;;;;20.88;12.88;;;;;;;;;;10460094;28;20462;-88
2023/12/03 18:29:36;;;;;;;22.77;12.82;;;;;;;;;;10465295;28;20524;-87
2023/12/03 18:34:42;;;;;;;29.07;15.10;;;;;;;;;;10460928;28;20600;-86
2023/12/03 18:39:50;;;;;;;30.60;15.93;;;;;;;;;;10438200;28;20877;-88
2023/12/03 18:44:59;;;;;;;26.75;15.38;;;;;;;;;;10460769;28;20486;-88
2023/12/03 18:50:05;;;;;;;24.20;14.40;;;;;;;;;;10471103;28;20549;-88
2023/12/03 18:55:13;;;;;;;18.88;12.07;;;;;;;;;;10457099;28;20534;-89
2023/12/03 19:00:24;;;;;;;22.97;11.43;;;;;;;;;;10452258;28;20877;-87
2023/12/03 19:05:32;;;;;;;21.50;13.13;;;;;;;;;;10454367;28;20464;-88
2023/12/03 19:10:40;;;;;;;30.58;16.40;;;;;;;;;;10453659;28;20480;-88
2023/12/03 19:15:46;;;;;;;31.42;17.40;;;;;;;;;;10459909;28;20426;-88
2023/12/03 19:20:53;;;;;;;24.20;15.85;;;;;;;;;;10448424;28;20403;-89
2023/12/03 19:25:58;;;;;;;25.70;15.00;;;;;;;;;;10449232;28;20403;-89
2023/12/03 19:31:14;;;;;;;26.27;16.30;;;;;;;;;;10448629;28;20466;-90
2023/12/03 19:36:24;;;;;;;23.97;14.90;;;;;;;;;;10465602;28;20956;-89
2023/12/03 19:41:31;;;;;;;19.07;12.37;;;;;;;;;;10439410;28;20466;-88
2023/12/03 19:46:33;;;;;;;22.27;12.52;;;;;;;;;;10463164;28;20478;-88
2023/12/03 19:51:39;;;;;;;21.23;13.25;;;;;;;;;;10453347;28;20508;-88
2023/12/03 19:56:45;;;;;;;21.15;13.48;;;;;;;;;;10459808;28;20482;-88
2023/12/03 20:01:57;;;;;;;19.23;13.15;;;;;;;;;;10461112;28;20606;-88
2023/12/03 20:07:03;;;;;;;20.17;12.85;;;;;;;;;;10445592;28;20437;-88
2023/12/03 20:12:16;;;;;;;18.65;11.35;;;;;;;;;;10456594;28;20490;-87
2023/12/03 20:17:22;;;;;;;17.10;10.53;;;;;;;;;;10448834;28;20527;-87
2023/12/03 20:22:28;;;;;;;16.23;9.87;;;;;;;;;;10458530;28;20422;-88
2023/12/03 20:27:34;;;;;;;15.25;9.75;;;;;;;;;;10455117;28;20939;-87
2023/12/03 20:32:39;;;;;;;16.00;9.40;;;;;;;;;;10454747;28;20802;-89
2023/12/03 20:37:43;;;;;;;14.98;10.00;;;;;;;;;;10452347;28;20427;-88
2023/12/03 20:42:50;;;;;;;15.43;9.70;;;;;;;;;;10485379;28;20413;-89
2023/12/03 20:47:54;;;;;;;15.30;10.10;;;;;;;;;;10442030;28;20411;-89
2023/12/03 20:53:01;;;;;;;15.93;10.70;;;;;;;;;;10453839;28;20432;-89
2023/12/03 20:58:14;;;;;;;16.13;10.50;;;;;;;;;;10450849;28;20903;-89
2023/12/03 21:03:17;;;;;;;13.43;9.20;;;;;;;;;;10454317;28;20411;-89
2023/12/03 21:08:21;;;;;;;12.18;8.32;;;;;;;;;;10459467;28;20411;-89
2023/12/03 21:13:39;;;;;;;13.65;8.90;;;;;;;;;;10457123;28;20459;-88
2023/12/03 21:18:47;;;;;;;14.82;9.07;;;;;;;;;;10450339;28;20501;-89
2023/12/03 21:23:58;;;;;;;15.80;9.25;;;;;;;;;;10449762;28;20485;-90
2023/12/03 21:29:04;;;;;;;16.37;9.67;;;;;;;;;;10446372;28;20784;-88
2023/12/03 21:34:08;;;;;;;20.23;10.13;;;;;;;;;;10460292;28;20786;-89
2023/12/03 21:39:19;;;;;;;17.57;9.00;;;;;;;;;;10471866;28;20833;-89
2023/12/03 21:44:31;;;;;;;13.77;8.60;;;;;;;;;;10446707;28;20915;-90
2023/12/03 21:49:36;;;;;;;14.13;8.18;;;;;;;;;;10460111;28;20427;-88
2023/12/03 21:54:42;;;;;;;12.75;8.57;;;;;;;;;;10459690;28;20458;-89
2023/12/03 21:59:46;;;;;;;12.27;8.50;;;;;;;;;;10449883;28;20776;-90
2023/12/03 22:04:53;;;;;;;13.32;8.75;;;;;;;;;;10458210;28;20492;-89
2023/12/03 22:09:55;;;;;;;12.48;7.95;;;;;;;;;;10457143;28;20419;-88
2023/12/03 22:15:02;;;;;;;12.05;8.30;;;;;;;;;;10456959;28;20424;-87
2023/12/03 22:20:06;;;;;;;13.15;8.07;;;;;;;;;;10456953;28;20477;-88
2023/12/03 22:25:11;;;;;;;14.98;9.00;;;;;;;;;;10458906;28;20412;-89
2023/12/03 22:30:18;;;;;;;13.07;8.20;;;;;;;;;;10454778;28;20414;-89
2023/12/03 22:35:23;;;;;;;13.87;8.60;;;;;;;;;;10478792;28;20416;-88
2023/12/03 22:40:26;;;;;;;13.10;8.25;;;;;;;;;;10463176;28;20483;-88
2023/12/03 22:45:30;;;;;;;12.50;8.07;;;;;;;;;;10469988;28;20411;-88
2023/12/03 22:50:34;;;;;;;13.87;8.60;;;;;;;;;;10462554;28;20531;-89
2023/12/03 22:55:37;;;;;;;12.10;8.25;;;;;;;;;;10452170;28;20920;-89
2023/12/03 23:00:41;;;;;;;13.03;8.07;;;;;;;;;;10459984;28;20465;-88
2023/12/03 23:05:43;;;;;;;12.68;7.53;;;;;;;;;;10451756;28;20454;-89
2023/12/03 23:10:46;;;;;;;12.00;7.68;;;;;;;;;;10450911;28;20412;-89
2023/12/03 23:15:50;;;;;;;12.45;7.82;;;;;;;;;;10448964;28;20874;-89
2023/12/03 23:20:52;;;;;;;11.95;7.80;;;;;;;;;;10451925;28;20509;-89
2023/12/03 23:25:54;;;;;;;12.33;7.70;;;;;;;;;;10458610;28;20450;-89
2023/12/03 23:31:00;;;;;;;12.98;8.52;;;;;;;;;;10478469;28;20404;-88
2023/12/03 23:36:02;;;;;;;11.30;8.50;;;;;;;;;;10457698;28;20455;-90
2023/12/03 23:41:08;;;;;;;14.83;9.30;;;;;;;;;;10460247;28;20438;-90
2023/12/03 23:46:12;;;;;;;14.33;8.60;;;;;;;;;;10462294;28;20528;-89
2023/12/03 23:51:17;;;;;;;15.80;9.15;;;;;;;;;;10474035;28;20394;-90
2023/12/03 23:56:21;;;;;;;13.45;9.15;;;;;;;;;;10484230;28;20423;-89
